createdAt,value
2023-06-02T00:00:50.277Z,95318.00
2023-06-02T00:03:16.844Z,95314.75
2023-06-02T00:05:43.515Z,95317.94
2023-06-02T00:08:10.051Z,95321.50
2023-06-02T00:10:36.664Z,95324.22
2023-06-02T00:13:03.209Z,95319.88
2023-06-02T00:15:29.795Z,95325.41
2023-06-02T00:17:56.387Z,95328.31
2023-06-02T00:20:22.964Z,95326.69
2023-06-02T00:22:49.502Z,95329.69
2023-06-02T00:25:16.101Z,95316.28
2023-06-02T00:27:42.679Z,95317.13
2023-06-02T00:30:09.656Z,95325.38
2023-06-02T00:32:36.253Z,95323.47
2023-06-02T00:35:02.899Z,95320.81
2023-06-02T00:37:29.433Z,95327.00
2023-06-02T00:39:55.940Z,95322.31
2023-06-02T00:42:22.597Z,95323.88
2023-06-02T00:44:49.076Z,95326.41
2023-06-02T00:47:15.698Z,95322.50
2023-06-02T00:49:43.241Z,95323.47
2023-06-02T00:52:10.454Z,95320.53
2023-06-02T00:54:37.050Z,95317.16
2023-06-02T00:57:03.635Z,95318.78
2023-06-02T00:59:31.437Z,95315.69
2023-06-02T01:01:57.992Z,95321.28
2023-06-02T01:04:25.335Z,95316.91
2023-06-02T01:06:52.024Z,95311.13
2023-06-02T01:09:20.485Z,95315.38
2023-06-02T01:11:47.221Z,95312.66
2023-06-02T01:14:14.255Z,95312.59
2023-06-02T01:16:41.336Z,95304.00
2023-06-02T01:19:09.966Z,95305.94
2023-06-02T01:21:39.524Z,95305.94
2023-06-02T01:24:06.569Z,95311.34
2023-06-02T01:26:33.411Z,95303.59
2023-06-02T01:28:59.947Z,95297.97
2023-06-02T01:31:41.244Z,95301.31
2023-06-02T01:34:28.029Z,95309.84
2023-06-02T01:36:58.763Z,95311.47
2023-06-02T01:39:28.407Z,95313.59
2023-06-02T01:41:56.454Z,95305.50
2023-06-02T01:44:24.581Z,95307.44
2023-06-02T01:46:51.521Z,95304.88
2023-06-02T01:49:18.548Z,95300.34
2023-06-02T01:51:46.349Z,95301.81
2023-06-02T01:54:13.233Z,95308.31
2023-06-02T01:56:39.826Z,95310.38
2023-06-02T01:59:06.360Z,95300.94
2023-06-02T02:01:32.986Z,95305.81
2023-06-02T02:03:59.586Z,95303.25
2023-06-02T02:06:27.085Z,95304.00
2023-06-02T02:08:53.641Z,95306.69
2023-06-02T02:11:20.139Z,95308.59
2023-06-02T02:13:46.708Z,95311.94
2023-06-02T02:16:13.297Z,95308.47
2023-06-02T02:18:39.831Z,95309.38
2023-06-02T02:21:06.329Z,95306.69
2023-06-02T02:23:32.841Z,95313.19
2023-06-02T02:25:59.324Z,95311.06
2023-06-02T02:28:27.864Z,95314.31
2023-06-02T02:30:54.347Z,95307.84
2023-06-02T02:33:20.873Z,95305.38
2023-06-02T02:35:47.420Z,95318.19
2023-06-02T02:38:13.948Z,95318.31
2023-06-02T02:40:40.540Z,95320.09
2023-06-02T02:43:07.040Z,95313.19
2023-06-02T02:45:33.626Z,95319.94
2023-06-02T02:48:00.390Z,95320.06
2023-06-02T02:50:27.005Z,95327.03
2023-06-02T02:52:53.533Z,95331.03
2023-06-02T02:55:20.044Z,95332.78
2023-06-02T02:57:46.764Z,95327.31
2023-06-02T03:00:13.602Z,95329.47
2023-06-02T03:02:40.483Z,95334.03
2023-06-02T03:05:07.967Z,95326.88
2023-06-02T03:07:34.503Z,95328.81
2023-06-02T03:10:01.530Z,95325.00
2023-06-02T03:12:28.072Z,95325.13
2023-06-02T03:14:54.587Z,95331.41
2023-06-02T03:17:21.149Z,95327.69
2023-06-02T03:19:47.710Z,95329.66
2023-06-02T03:22:14.211Z,95337.94
2023-06-02T03:24:40.773Z,95339.41
2023-06-02T03:27:07.494Z,95335.00
2023-06-02T03:29:34.026Z,95337.22
2023-06-02T03:32:00.538Z,95337.00
2023-06-02T03:34:27.073Z,95337.56
2023-06-02T03:36:53.646Z,95338.63
2023-06-02T03:39:20.162Z,95338.72
2023-06-02T03:41:46.744Z,95329.66
2023-06-02T03:44:14.404Z,95335.94
2023-06-02T03:46:40.971Z,95342.44
2023-06-02T03:49:07.589Z,95344.78
2023-06-02T03:51:34.119Z,95343.28
2023-06-02T03:54:00.670Z,95342.00
2023-06-02T03:56:27.201Z,95342.78
2023-06-02T03:58:53.732Z,95345.94
2023-06-02T04:01:21.814Z,95343.97
2023-06-02T04:03:48.353Z,95348.50
2023-06-02T04:06:14.988Z,95350.81
2023-06-02T04:08:41.531Z,95348.59
2023-06-02T04:11:08.509Z,95364.16
2023-06-02T04:13:35.444Z,95355.94
2023-06-02T04:16:02.916Z,95356.25
2023-06-02T04:18:31.313Z,95360.44
2023-06-02T04:20:58.998Z,95363.56
2023-06-02T04:23:25.531Z,95360.56
2023-06-02T04:25:52.033Z,95354.97
2023-06-02T04:28:18.574Z,95366.81
2023-06-02T04:30:45.169Z,95357.31
2023-06-02T04:33:11.714Z,95371.81
2023-06-02T04:35:38.241Z,95358.81
2023-06-02T04:38:04.769Z,95374.47
2023-06-02T04:40:31.321Z,95367.53
2023-06-02T04:42:58.046Z,95363.59
2023-06-02T04:45:24.901Z,95356.97
2023-06-02T04:47:51.441Z,95354.75
2023-06-02T04:50:17.969Z,95360.44
2023-06-02T04:52:44.561Z,95359.28
2023-06-02T04:55:12.569Z,95362.88
2023-06-02T04:57:39.186Z,95357.28
2023-06-02T05:00:07.818Z,95361.19
2023-06-02T05:02:34.424Z,95360.22
2023-06-02T05:05:00.988Z,95363.03
2023-06-02T05:07:27.510Z,95369.75
2023-06-02T05:09:54.098Z,95364.66
2023-06-02T05:12:20.639Z,95361.59
2023-06-02T05:14:47.184Z,95362.75
2023-06-02T05:17:13.880Z,95368.19
2023-06-02T05:19:47.165Z,95358.88
2023-06-02T05:22:13.844Z,95354.81
2023-06-02T05:24:40.394Z,95361.06
2023-06-02T05:27:07.093Z,95358.00
2023-06-02T05:29:33.773Z,95364.09
2023-06-02T05:32:00.370Z,95359.97
2023-06-02T05:34:26.939Z,95361.09
2023-06-02T05:36:53.480Z,95365.81
2023-06-02T05:39:20.073Z,95362.00
2023-06-02T05:41:46.596Z,95361.03
2023-06-02T05:44:13.128Z,95362.28
2023-06-02T05:46:41.123Z,95362.91
2023-06-02T05:49:07.662Z,95360.47
2023-06-02T05:51:34.203Z,95355.75
2023-06-02T05:54:00.719Z,95351.00
2023-06-02T05:56:27.242Z,95358.09
2023-06-02T05:58:53.906Z,95357.94
2023-06-02T06:01:20.526Z,95353.22
2023-06-02T06:03:47.317Z,95357.34
2023-06-02T06:06:13.936Z,95357.47
2023-06-02T06:08:43.350Z,95358.78
2023-06-02T06:11:09.922Z,95363.28
2023-06-02T06:13:36.496Z,95361.75
2023-06-02T06:16:04.839Z,95359.88
2023-06-02T06:18:31.587Z,95359.53
2023-06-02T06:20:58.106Z,95364.75
2023-06-02T06:23:24.778Z,95358.28
2023-06-02T06:25:51.294Z,95370.41
2023-06-02T06:28:17.834Z,95367.13
2023-06-02T06:30:44.375Z,95364.28
2023-06-02T06:33:10.912Z,95373.28
2023-06-02T06:35:37.585Z,95373.19
2023-06-02T06:38:04.759Z,95370.84
2023-06-02T06:40:32.662Z,95373.94
2023-06-02T06:43:02.975Z,95372.59
2023-06-02T06:45:34.822Z,95367.81
2023-06-02T06:48:01.464Z,95372.63
2023-06-02T06:50:28.029Z,95372.53
2023-06-02T06:52:54.568Z,95374.72
2023-06-02T06:55:21.104Z,95388.31
2023-06-02T06:57:47.740Z,95379.16
2023-06-02T07:00:14.703Z,95370.81
2023-06-02T07:02:41.260Z,95375.78
2023-06-02T07:05:08.084Z,95372.59
2023-06-02T07:07:34.697Z,95371.84
2023-06-02T07:10:02.046Z,95372.56
2023-06-02T07:12:28.798Z,95371.72
2023-06-02T07:14:55.453Z,95373.50
2023-06-02T07:17:22.038Z,95371.22
2023-06-02T07:19:48.725Z,95368.72
2023-06-02T07:22:15.392Z,95375.31
2023-06-02T07:24:43.704Z,95378.72
2023-06-02T07:27:11.117Z,95376.69
2023-06-02T07:29:37.712Z,95377.59
2023-06-02T07:32:04.713Z,95378.94
2023-06-02T07:34:31.413Z,95376.63
2023-06-02T07:36:58.051Z,95374.03
2023-06-02T07:39:24.617Z,95378.34
2023-06-02T07:41:51.216Z,95369.16
2023-06-02T07:44:17.804Z,95375.28
2023-06-02T07:46:44.548Z,95366.06
2023-06-02T07:49:11.291Z,95368.16
2023-06-02T07:51:38.656Z,95362.25
2023-06-02T07:54:05.509Z,95365.63
2023-06-02T07:56:32.578Z,95369.56
2023-06-02T07:58:59.149Z,95362.94
2023-06-02T08:01:25.802Z,95360.47
2023-06-02T08:03:52.640Z,95361.97
2023-06-02T08:06:19.596Z,95363.78
2023-06-02T08:08:46.188Z,95355.19
2023-06-02T08:11:14.187Z,95360.66
2023-06-02T08:13:40.847Z,95359.50
2023-06-02T08:18:37.406Z,95359.09
2023-06-02T08:21:04.367Z,95358.00
2023-06-02T08:23:31.717Z,95356.03
2023-06-02T08:25:58.262Z,95360.78
2023-06-02T08:28:25.188Z,95353.72
2023-06-02T08:30:51.891Z,95354.41
2023-06-02T08:33:18.708Z,95357.47
2023-06-02T08:35:46.194Z,95348.84
2023-06-02T08:38:12.899Z,95351.22
2023-06-02T08:40:40.419Z,95346.53
2023-06-02T08:43:08.330Z,95347.13
2023-06-02T08:45:34.932Z,95342.78
2023-06-02T08:48:06.321Z,95349.66
2023-06-02T08:50:37.054Z,95337.16
2023-06-02T08:53:06.163Z,95342.38
2023-06-02T08:55:33.566Z,95349.19
2023-06-02T08:58:00.169Z,95343.81
2023-06-02T09:00:26.729Z,95335.09
2023-06-02T09:02:54.460Z,95342.69
2023-06-02T09:05:21.270Z,95335.09
2023-06-02T09:07:48.219Z,95332.75
2023-06-02T09:10:31.509Z,95335.56
2023-06-02T09:12:58.524Z,95334.88
2023-06-02T09:15:25.422Z,95338.63
2023-06-02T09:17:52.832Z,95332.84
2023-06-02T09:20:31.441Z,95327.53
2023-06-02T09:22:59.516Z,95329.31
2023-06-02T09:25:31.401Z,95333.25
2023-06-02T09:27:59.575Z,95328.22
2023-06-02T09:30:27.289Z,95329.84
2023-06-02T09:32:58.792Z,95325.06
2023-06-02T09:35:40.576Z,95329.44
2023-06-02T09:38:11.587Z,95324.59
2023-06-02T09:40:39.608Z,95323.47
2023-06-02T09:43:12.153Z,95320.34
2023-06-02T09:45:47.673Z,95316.66
2023-06-02T09:48:22.027Z,95321.47
2023-06-02T09:50:48.713Z,95309.41
2023-06-02T09:53:15.449Z,95317.22
2023-06-02T09:55:41.993Z,95310.94
2023-06-02T09:58:09.601Z,95316.69
2023-06-02T10:00:36.180Z,95322.13
2023-06-02T10:03:05.993Z,95318.63
2023-06-02T10:05:33.798Z,95315.91
2023-06-02T10:08:22.140Z,95324.84
2023-06-02T10:11:14.278Z,95309.78
2023-06-02T10:13:57.348Z,95311.91
2023-06-02T10:16:56.324Z,95311.38
2023-06-02T10:19:36.630Z,95308.16
2023-06-02T10:22:22.840Z,95301.69
2023-06-02T10:25:00.060Z,95292.59
2023-06-02T10:27:38.013Z,95298.00
2023-06-02T10:30:05.326Z,95293.94
2023-06-02T10:32:44.144Z,95289.63
2023-06-02T10:35:13.614Z,95285.56
2023-06-02T10:37:44.233Z,95283.44
2023-06-02T10:40:12.411Z,95282.09
2023-06-02T10:42:59.587Z,95281.31
2023-06-02T10:45:29.251Z,95276.97
2023-06-02T10:47:55.955Z,95276.97
2023-06-02T10:50:22.680Z,95279.13
2023-06-02T10:53:01.519Z,95270.53
2023-06-02T10:55:28.231Z,95273.75
2023-06-02T10:57:59.445Z,95263.53
2023-06-02T11:00:28.942Z,95268.38
2023-06-02T11:02:55.873Z,95278.63
2023-06-02T11:05:30.646Z,95274.56
2023-06-02T11:08:12.647Z,95256.81
2023-06-02T11:10:46.406Z,95253.03
2023-06-02T11:13:15.172Z,95257.59
2023-06-02T11:15:56.854Z,95260.28
2023-06-02T11:18:23.387Z,95261.34
2023-06-02T11:20:50.632Z,95253.81
2023-06-02T11:23:18.620Z,95260.25
2023-06-02T11:25:46.049Z,95250.78
2023-06-02T11:28:16.946Z,95253.13
2023-06-02T11:30:43.635Z,95240.50
2023-06-02T11:33:10.584Z,95240.00
2023-06-02T11:35:37.434Z,95240.34
2023-06-02T11:38:08.265Z,95240.81
2023-06-02T11:40:36.867Z,95241.31
2023-06-02T11:43:03.752Z,95230.28
2023-06-02T11:45:31.334Z,95233.22
2023-06-02T11:48:06.291Z,95232.09
2023-06-02T11:50:33.120Z,95225.56
2023-06-02T11:53:00.149Z,95224.34
2023-06-02T11:55:31.374Z,95216.94
2023-06-02T11:58:17.671Z,95215.16
2023-06-02T12:00:44.278Z,95212.50
2023-06-02T12:03:10.921Z,95213.94
2023-06-02T12:05:37.777Z,95210.38
2023-06-02T12:08:12.000Z,95205.13
2023-06-02T12:10:40.301Z,95200.53
2023-06-02T12:13:07.046Z,95208.09
2023-06-02T12:15:34.183Z,95201.78
2023-06-02T12:18:09.477Z,95195.59
2023-06-02T12:20:41.479Z,95185.22
2023-06-02T12:23:09.011Z,95180.41
2023-06-02T12:25:36.119Z,95182.91
2023-06-02T12:28:16.588Z,95180.22
2023-06-02T12:30:48.099Z,95172.53
2023-06-02T12:33:14.843Z,95168.91
2023-06-02T12:35:41.995Z,95180.50
2023-06-02T12:38:09.500Z,95178.84
2023-06-02T12:40:39.413Z,95172.13
2023-06-02T12:43:06.127Z,95167.28
2023-06-02T12:45:32.677Z,95171.78
2023-06-02T12:48:00.277Z,95167.06
2023-06-02T12:50:27.095Z,95160.28
2023-06-02T12:52:53.601Z,95157.69
2023-06-02T12:55:20.340Z,95173.09
2023-06-02T12:57:47.573Z,95175.47
2023-06-02T13:00:15.924Z,95156.81
2023-06-02T13:02:42.656Z,95166.75
2023-06-02T13:05:10.272Z,95147.75
2023-06-02T13:07:40.655Z,95149.56
2023-06-02T13:10:09.718Z,95150.47
2023-06-02T13:12:37.204Z,95144.97
2023-06-02T13:15:04.577Z,95143.44
2023-06-02T13:17:31.131Z,95146.22
2023-06-02T13:19:57.667Z,95139.47
2023-06-02T13:22:24.660Z,95140.81
2023-06-02T13:24:53.840Z,95133.06
2023-06-02T13:27:24.641Z,95141.44
2023-06-02T13:29:57.561Z,95127.19
2023-06-02T13:32:24.208Z,95131.91
2023-06-02T13:34:56.291Z,95118.97
2023-06-02T13:37:23.973Z,95114.03
2023-06-02T13:39:51.648Z,95116.00
2023-06-02T13:42:18.267Z,95117.59
2023-06-02T13:44:44.916Z,95117.72
2023-06-02T13:47:11.458Z,95114.00
2023-06-02T13:49:38.022Z,95111.84
2023-06-02T13:52:06.179Z,95115.84
2023-06-02T13:54:32.740Z,95107.03
2023-06-02T13:56:59.244Z,95112.63
2023-06-02T13:59:25.803Z,95110.53
2023-06-02T14:01:52.426Z,95105.91
2023-06-02T14:04:19.032Z,95109.88
2023-06-02T14:06:45.554Z,95108.78
2023-06-02T14:09:12.083Z,95104.00
2023-06-02T14:11:38.630Z,95101.63
2023-06-02T14:14:06.764Z,95100.47
2023-06-02T14:16:33.378Z,95098.25
2023-06-02T14:19:02.124Z,95108.03
2023-06-02T14:21:28.997Z,95104.50
2023-06-02T14:23:55.870Z,95098.13
2023-06-02T14:26:22.872Z,95100.84
2023-06-02T14:28:49.500Z,95101.34
2023-06-02T14:31:16.160Z,95085.59
2023-06-02T14:33:42.706Z,95097.38
2023-06-02T14:36:09.857Z,95078.75
2023-06-02T14:38:36.539Z,95086.31
2023-06-02T14:41:03.282Z,95074.38
2023-06-02T14:43:29.969Z,95066.94
2023-06-02T14:45:56.605Z,95072.38
2023-06-02T14:48:23.567Z,95072.06
2023-06-02T14:50:50.201Z,95070.06
2023-06-02T14:53:16.769Z,95053.38
2023-06-02T14:55:43.405Z,95051.88
2023-06-02T14:58:10.051Z,95053.44
2023-06-02T15:00:36.674Z,95052.53
2023-06-02T15:03:04.146Z,95048.91
2023-06-02T15:05:30.848Z,95035.25
2023-06-02T15:07:57.391Z,95056.50
2023-06-02T15:10:24.607Z,95046.88
2023-06-02T15:12:51.128Z,95050.56
2023-06-02T15:15:17.660Z,95049.34
2023-06-02T15:17:44.309Z,95041.50
2023-06-02T15:20:11.293Z,95033.69
2023-06-02T15:22:37.942Z,95040.38
2023-06-02T15:25:05.086Z,95053.47
2023-06-02T15:27:31.753Z,95049.53
2023-06-02T15:29:58.295Z,95057.66
2023-06-02T15:32:24.980Z,95054.00
2023-06-02T15:34:51.583Z,95051.44
2023-06-02T15:37:18.166Z,95053.59
2023-06-02T15:39:44.752Z,95052.09
2023-06-02T15:42:11.537Z,95053.75
2023-06-02T15:44:38.208Z,95051.66
2023-06-02T15:47:05.151Z,95050.13
2023-06-02T15:49:31.662Z,95054.22
2023-06-02T15:51:58.186Z,95043.81
2023-06-02T15:54:24.757Z,95047.13
2023-06-02T15:56:52.574Z,95036.75
2023-06-02T15:59:20.099Z,95053.84
2023-06-02T16:01:46.674Z,95052.25
2023-06-02T16:04:13.309Z,95042.50
2023-06-02T16:06:39.907Z,95048.72
2023-06-02T16:09:06.458Z,95046.81
2023-06-02T16:11:33.236Z,95042.63
2023-06-02T16:13:59.833Z,95044.50
2023-06-02T16:16:26.721Z,95040.84
2023-06-02T16:18:53.439Z,95031.22
2023-06-02T16:21:20.468Z,95035.53
2023-06-02T16:23:47.696Z,95036.56
2023-06-02T16:26:14.764Z,95045.41
2023-06-02T16:28:42.326Z,95036.31
2023-06-02T16:31:09.370Z,95049.81
2023-06-02T16:33:36.446Z,95049.88
2023-06-02T16:36:03.877Z,95050.06
2023-06-02T16:38:31.302Z,95045.63
2023-06-02T16:40:57.974Z,95053.53
2023-06-02T16:43:25.153Z,95048.81
2023-06-02T16:45:51.829Z,95053.00
2023-06-02T16:48:18.437Z,95050.19
2023-06-02T16:50:44.973Z,95044.84
2023-06-02T16:53:11.525Z,95051.94
2023-06-02T16:55:38.044Z,95047.47
2023-06-02T16:58:04.584Z,95042.81
2023-06-02T17:00:31.183Z,95044.44
2023-06-02T17:02:58.002Z,95046.31
2023-06-02T17:05:24.893Z,95056.78
2023-06-02T17:07:51.440Z,95041.38
2023-06-02T17:10:19.168Z,95047.59
2023-06-02T17:12:45.902Z,95044.88
2023-06-02T17:15:12.503Z,95044.44
2023-06-02T17:17:39.225Z,95051.28
2023-06-02T17:20:06.325Z,95053.56
2023-06-02T17:22:32.838Z,95057.56
2023-06-02T17:24:59.442Z,95058.66
2023-06-02T17:27:26.036Z,95056.09
2023-06-02T17:29:52.565Z,95067.38
2023-06-02T17:32:19.135Z,95060.25
2023-06-02T17:34:45.945Z,95066.81
2023-06-02T17:37:13.001Z,95073.38
2023-06-02T17:39:39.677Z,95068.56
2023-06-02T17:42:06.988Z,95069.38
2023-06-02T17:44:33.629Z,95071.94
2023-06-02T17:47:00.218Z,95064.00
2023-06-02T17:49:26.872Z,95065.72
2023-06-02T17:51:53.484Z,95062.16
2023-06-02T17:54:20.106Z,95060.72
2023-06-02T17:56:46.703Z,95071.78
2023-06-02T17:59:13.245Z,95071.06
2023-06-02T18:01:39.820Z,95073.91
2023-06-02T18:04:06.448Z,95080.34
2023-06-02T18:06:33.020Z,95083.97
2023-06-02T18:08:59.541Z,95083.06
2023-06-02T18:11:28.183Z,95084.09
2023-06-02T18:13:56.160Z,95089.53
2023-06-02T18:16:22.839Z,95100.41
2023-06-02T18:18:49.350Z,95103.06
2023-06-02T18:21:15.906Z,95101.19
2023-06-02T18:23:42.446Z,95109.34
2023-06-02T18:26:08.942Z,95108.09
2023-06-02T18:28:35.489Z,95119.09
2023-06-02T18:31:02.799Z,95111.50
2023-06-02T18:33:30.000Z,95117.09
2023-06-02T18:35:56.947Z,95124.72
2023-06-02T18:38:23.485Z,95127.13
2023-06-02T18:40:50.050Z,95140.59
2023-06-02T18:43:16.662Z,95134.91
2023-06-02T18:45:43.302Z,95136.56
2023-06-02T18:48:09.906Z,95144.50
2023-06-02T18:50:36.609Z,95146.06
2023-06-02T18:53:03.141Z,95149.44
2023-06-02T18:55:29.682Z,95152.78
2023-06-02T18:57:56.259Z,95148.25
2023-06-02T19:00:22.814Z,95155.50
2023-06-02T19:02:49.654Z,95153.63
2023-06-02T19:05:16.357Z,95153.09
2023-06-02T19:07:45.802Z,95165.34
2023-06-02T19:10:12.345Z,95169.13
2023-06-02T19:12:41.305Z,95164.91
2023-06-02T19:15:08.069Z,95162.53
2023-06-02T19:17:34.720Z,95171.47
2023-06-02T19:20:01.298Z,95174.16
2023-06-02T19:22:27.888Z,95182.22
2023-06-02T19:24:54.478Z,95181.69
2023-06-02T19:27:21.144Z,95189.78
2023-06-02T19:29:47.662Z,95191.41
2023-06-02T19:32:14.224Z,95191.38
2023-06-02T19:34:40.764Z,95193.28
2023-06-02T19:37:07.544Z,95201.03
2023-06-02T19:39:34.144Z,95204.72
2023-06-02T19:42:00.658Z,95216.03
2023-06-02T19:44:27.274Z,95208.25
2023-06-02T19:46:53.881Z,95216.53
2023-06-02T19:49:22.667Z,95218.53
2023-06-02T19:51:49.207Z,95230.38
2023-06-02T19:54:15.747Z,95232.34
2023-06-02T19:56:42.759Z,95243.28
2023-06-02T19:59:09.394Z,95248.06
2023-06-02T20:01:35.962Z,95257.25
2023-06-02T20:04:02.582Z,95260.31
2023-06-02T20:06:29.254Z,95267.97
2023-06-02T20:08:55.828Z,95269.66
2023-06-02T20:11:22.356Z,95278.19
2023-06-02T20:13:49.033Z,95283.59
2023-06-02T20:16:15.747Z,95292.25
2023-06-02T20:18:50.254Z,95288.13
2023-06-02T20:21:21.206Z,95291.94
2023-06-02T20:23:48.190Z,95298.97
2023-06-02T20:26:16.390Z,95291.13
2023-06-02T20:28:43.392Z,95310.84
2023-06-02T20:31:13.325Z,95309.75
2023-06-02T20:33:40.684Z,95309.69
2023-06-02T20:36:07.714Z,95312.34
2023-06-02T20:38:34.486Z,95318.28
2023-06-02T20:41:01.113Z,95313.47
2023-06-02T20:43:27.703Z,95314.66
2023-06-02T20:45:54.309Z,95312.50
2023-06-02T20:48:20.930Z,95312.28
2023-06-02T20:50:47.543Z,95316.56
2023-06-02T20:53:14.089Z,95308.25
2023-06-02T20:55:40.695Z,95311.22
2023-06-02T20:58:07.340Z,95310.94
2023-06-02T21:00:33.918Z,95316.28
2023-06-02T21:03:00.661Z,95315.22
2023-06-02T21:05:27.364Z,95300.69
2023-06-02T21:07:54.066Z,95307.09
2023-06-02T21:10:23.041Z,95312.91
2023-06-02T21:12:49.707Z,95308.19
2023-06-02T21:15:16.336Z,95304.69
2023-06-02T21:17:42.979Z,95312.00
2023-06-02T21:20:09.857Z,95308.75
2023-06-02T21:22:36.466Z,95315.50
2023-06-02T21:25:03.386Z,95311.19
2023-06-02T21:27:29.945Z,95322.13
2023-06-02T21:29:56.604Z,95325.28
2023-06-02T21:32:23.176Z,95318.88
2023-06-02T21:34:51.210Z,95320.34
2023-06-02T21:37:17.888Z,95320.75
2023-06-02T21:39:44.480Z,95325.56
2023-06-02T21:42:11.078Z,95323.81
2023-06-02T21:44:37.654Z,95333.25
2023-06-02T21:47:04.412Z,95339.25
2023-06-02T21:49:31.630Z,95338.25
2023-06-02T21:51:58.436Z,95344.78
2023-06-02T21:54:25.030Z,95349.41
2023-06-02T21:56:51.641Z,95347.84
2023-06-02T21:59:18.331Z,95351.53
2023-06-02T22:01:45.027Z,95352.75
2023-06-02T22:04:11.776Z,95351.03
2023-06-02T22:06:38.413Z,95347.13
2023-06-02T22:09:04.971Z,95348.28
2023-06-02T22:11:31.653Z,95352.13
2023-06-02T22:13:58.302Z,95344.66
2023-06-02T22:16:24.973Z,95350.28
2023-06-02T22:18:51.615Z,95349.91
2023-06-02T22:21:25.348Z,95338.78
2023-06-02T22:24:14.885Z,95342.41
2023-06-02T22:26:51.648Z,95346.69
2023-06-02T22:29:18.395Z,95352.47
2023-06-02T22:31:45.078Z,95354.34
2023-06-02T22:34:11.778Z,95347.41
2023-06-02T22:36:38.534Z,95344.78
2023-06-02T22:39:05.146Z,95351.22
2023-06-02T22:41:31.789Z,95346.97
2023-06-02T22:43:58.452Z,95351.91
2023-06-02T22:46:25.407Z,95349.69
2023-06-02T22:48:52.101Z,95344.53
2023-06-02T22:51:18.797Z,95333.22
2023-06-02T22:53:45.516Z,95339.72
2023-06-02T22:56:15.289Z,95340.31
2023-06-02T22:58:41.975Z,95337.81
2023-06-02T23:01:08.819Z,95332.56
2023-06-02T23:03:35.485Z,95340.28
2023-06-02T23:06:02.103Z,95338.91
2023-06-02T23:08:28.786Z,95340.13
2023-06-02T23:10:55.376Z,95343.78
2023-06-02T23:13:21.985Z,95344.91
2023-06-02T23:15:48.589Z,95344.66
2023-06-02T23:18:16.921Z,95344.66
2023-06-02T23:20:45.255Z,95333.84
2023-06-02T23:23:11.922Z,95342.94
2023-06-02T23:25:38.534Z,95343.06
2023-06-02T23:28:05.220Z,95338.31
2023-06-02T23:30:31.794Z,95342.50
2023-06-02T23:32:58.936Z,95343.31
2023-06-02T23:35:25.588Z,95348.88
2023-06-02T23:37:52.347Z,95350.16
2023-06-02T23:40:18.984Z,95349.88
2023-06-02T23:42:45.651Z,95356.00
2023-06-02T23:45:12.336Z,95353.19
2023-06-02T23:47:39.050Z,95347.34
2023-06-02T23:50:06.762Z,95352.81
2023-06-02T23:52:33.406Z,95346.44
2023-06-02T23:55:00.039Z,95345.88
2023-06-02T23:57:26.634Z,95341.75
2023-06-02T23:59:53.352Z,95345.66
